Time;durP1;ratioP1;P1;durP2;ratioP2;P2;SDS_P1;SDS_P2;PMS_P1;PMS_P2;Temp;Humidity;BMP_temperature;BMP_pressure;BME280_temperature;BME280_humidity;BME280_pressure;Samples;Min_cycle;Max_cycle;Signal;HPM_P1;HPM_P2
2022/04/26 03:38:23;;;;;;;13.70;8.27;;;5.20;99.90;;;;;;4949045;29;20034;-74
2022/04/26 03:40:49;;;;;;;15.52;7.55;;;5.10;99.90;;;;;;4950010;28;20038;-73
2022/04/26 03:43:15;;;;;;;12.32;7.22;;;5.20;99.90;;;;;;4948494;28;20027;-73
2022/04/26 03:45:41;;;;;;;13.15;8.13;;;5.20;99.90;;;;;;4943673;28;20429;-75
2022/04/26 03:48:08;;;;;;;13.23;8.00;;;5.20;99.90;;;;;;4942105;28;20035;-73
2022/04/26 03:50:34;;;;;;;15.63;7.88;;;5.20;99.90;;;;;;4946034;28;20379;-73
2022/04/26 03:53:00;;;;;;;19.35;8.20;;;5.20;99.90;;;;;;4948225;29;20118;-72
2022/04/26 03:55:26;;;;;;;13.50;7.85;;;5.20;99.90;;;;;;4945215;28;20035;-75
2022/04/26 03:57:53;;;;;;;16.10;8.15;;;5.30;99.90;;;;;;4951623;28;20031;-74
2022/04/26 04:00:21;;;;;;;12.82;7.45;;;5.20;99.90;;;;;;4946610;28;20040;-75
2022/04/26 04:02:48;;;;;;;14.75;7.80;;;5.20;99.90;;;;;;4947867;28;20046;-75
2022/04/26 04:05:15;;;;;;;15.20;7.80;;;5.30;99.90;;;;;;4946596;29;20041;-75
2022/04/26 04:07:44;;;;;;;15.05;7.97;;;5.30;99.90;;;;;;4949893;28;20537;-75
2022/04/26 04:10:14;;;;;;;16.58;8.90;;;5.30;99.90;;;;;;4944456;28;20047;-74
2022/04/26 04:12:46;;;;;;;13.77;8.50;;;5.40;99.90;;;;;;4950578;28;20058;-74
2022/04/26 04:15:15;;;;;;;14.13;7.80;;;5.40;99.90;;;;;;4951735;28;20244;-75
2022/04/26 04:17:43;;;;;;;12.15;8.05;;;5.50;99.90;;;;;;4948275;28;20066;-75
2022/04/26 04:20:11;;;;;;;13.13;7.55;;;5.50;99.90;;;;;;4951994;28;20474;-74
2022/04/26 04:22:39;;;;;;;16.52;7.85;;;5.60;99.90;;;;;;4948078;28;20031;-74
2022/04/26 04:25:06;;;;;;;18.30;7.82;;;5.70;99.90;;;;;;4950404;28;20505;-75
2022/04/26 04:27:33;;;;;;;11.85;6.97;;;5.70;99.90;;;;;;4949283;28;20035;-75
2022/04/26 04:30:02;;;;;;;16.67;7.45;;;5.70;99.90;;;;;;4950935;28;20031;-76
2022/04/26 04:32:29;;;;;;;17.08;8.23;;;5.80;99.90;;;;;;4937466;28;20122;-76
2022/04/26 04:34:58;;;;;;;16.70;7.72;;;5.90;99.90;;;;;;4948982;28;20082;-74
2022/04/26 04:37:27;;;;;;;17.05;7.90;;;6.00;99.90;;;;;;4951295;28;20035;-75
2022/04/26 04:40:00;;;;;;;14.30;8.60;;;6.00;99.90;;;;;;4949871;28;20031;-75
2022/04/26 04:42:28;;;;;;;16.77;8.75;;;6.10;99.90;;;;;;4946925;28;20039;-75
2022/04/26 04:44:56;;;;;;;21.08;8.88;;;6.20;99.90;;;;;;4949571;28;20138;-75
2022/04/26 04:47:22;;;;;;;17.67;9.27;;;6.20;99.90;;;;;;4950034;28;20310;-73
2022/04/26 04:49:50;;;;;;;14.75;8.45;;;6.30;99.90;;;;;;4946037;28;20054;-74
2022/04/26 04:52:17;;;;;;;20.48;8.85;;;6.30;99.90;;;;;;4950880;28;20027;-75
2022/04/26 04:54:46;;;;;;;19.23;9.15;;;6.40;99.90;;;;;;4945435;28;20045;-74
2022/04/26 04:57:13;;;;;;;15.68;9.27;;;6.50;99.90;;;;;;4947352;28;20051;-74
2022/04/26 04:59:39;;;;;;;17.83;9.07;;;6.70;99.90;;;;;;4949395;28;20035;-73
2022/04/26 05:02:06;;;;;;;20.52;9.43;;;6.70;99.90;;;;;;4951230;28;20023;-73
2022/04/26 05:04:32;;;;;;;17.83;9.07;;;6.80;99.90;;;;;;4951027;28;20038;-73
2022/04/26 05:06:59;;;;;;;17.58;9.27;;;6.80;99.90;;;;;;4947193;28;20031;-74
2022/04/26 05:09:26;;;;;;;15.13;9.15;;;6.90;99.90;;;;;;4948592;28;20507;-74
2022/04/26 05:11:54;;;;;;;17.88;9.63;;;7.00;99.90;;;;;;4950067;28;20382;-73
2022/04/26 05:14:20;;;;;;;22.17;10.40;;;7.10;99.90;;;;;;4951331;28;20533;-74
2022/04/26 05:16:47;;;;;;;26.42;9.70;;;7.10;99.90;;;;;;4945485;28;20426;-73
2022/04/26 05:19:17;;;;;;;16.88;9.65;;;7.20;99.90;;;;;;4946776;28;20039;-73
2022/04/26 05:21:50;;;;;;;20.70;10.00;;;7.30;99.90;;;;;;4936318;28;20383;-73
2022/04/26 05:27:06;;;;;;;18.38;10.15;;;7.40;99.90;;;;;;4941452;28;20445;-73
2022/04/26 05:29:32;;;;;;;15.82;10.18;;;7.40;99.90;;;;;;4946593;29;20023;-74
2022/04/26 05:32:01;;;;;;;21.33;10.68;;;7.50;99.90;;;;;;4950113;28;20106;-74
2022/04/26 05:34:32;;;;;;;20.60;10.45;;;7.60;99.90;;;;;;4945783;28;20538;-74
2022/04/26 05:37:00;;;;;;;21.88;11.52;;;7.60;99.90;;;;;;4944664;28;20197;-76
2022/04/26 05:39:26;;;;;;;19.98;9.90;;;7.60;99.90;;;;;;4946493;28;20086;-76
2022/04/26 05:41:54;;;;;;;22.02;10.38;;;7.70;99.90;;;;;;4948354;28;20031;-76
2022/04/26 05:44:19;;;;;;;26.42;11.48;;;7.70;99.90;;;;;;4958104;28;20027;-76
2022/04/26 05:46:46;;;;;;;22.67;10.75;;;7.80;99.90;;;;;;4941349;28;20046;-76
2022/04/26 05:49:12;;;;;;;20.58;10.35;;;7.80;99.90;;;;;;4946007;28;20050;-76
2022/04/26 05:51:38;;;;;;;24.60;10.32;;;8.00;99.90;;;;;;4948244;28;20050;-76
2022/04/26 05:54:04;;;;;;;20.35;9.75;;;8.00;99.90;;;;;;4949812;28;20466;-76
2022/04/26 05:56:30;;;;;;;17.75;9.50;;;8.00;99.90;;;;;;4948773;28;20036;-75
2022/04/26 05:58:55;;;;;;;18.45;9.38;;;8.20;99.90;;;;;;4947358;29;20510;-76
2022/04/26 06:01:21;;;;;;;14.63;8.70;;;8.20;99.90;;;;;;4956370;28;20030;-75
2022/04/26 06:03:47;;;;;;;15.63;9.35;;;8.20;99.90;;;;;;4950059;28;20118;-76
2022/04/26 06:06:13;;;;;;;17.50;9.40;;;8.30;99.90;;;;;;4949333;28;20103;-77
2022/04/26 06:08:39;;;;;;;14.32;9.18;;;8.50;99.90;;;;;;4941448;28;20123;-75
2022/04/26 06:11:05;;;;;;;16.02;8.25;;;8.60;99.90;;;;;;4946777;28;20033;-75
2022/04/26 06:13:31;;;;;;;13.57;8.20;;;8.70;99.90;;;;;;4945789;28;20034;-75
2022/04/26 06:15:59;;;;;;;13.70;7.18;;;8.70;99.90;;;;;;4945938;28;20223;-74
2022/04/26 06:18:24;;;;;;;13.05;7.50;;;8.70;99.90;;;;;;4933435;28;20090;-74
2022/04/26 06:20:50;;;;;;;14.43;7.15;;;8.70;99.90;;;;;;4945891;28;20397;-74
2022/04/26 06:23:16;;;;;;;13.35;7.10;;;8.90;99.90;;;;;;4944093;28;20055;-75
2022/04/26 06:25:41;;;;;;;12.95;6.60;;;9.00;99.90;;;;;;4946686;29;20115;-74
2022/04/26 06:28:09;;;;;;;12.05;6.82;;;9.10;99.90;;;;;;4941663;28;20035;-75
2022/04/26 06:30:40;;;;;;;15.75;6.78;;;9.20;99.90;;;;;;4947962;28;20041;-75
2022/04/26 06:33:08;;;;;;;11.27;6.47;;;9.30;99.90;;;;;;4944605;28;20565;-75
2022/04/26 06:35:36;;;;;;;14.77;6.22;;;9.40;98.80;;;;;;4945233;28;20054;-74
2022/04/26 06:38:02;;;;;;;12.45;6.90;;;9.50;97.40;;;;;;4946997;28;20031;-74
2022/04/26 06:40:28;;;;;;;11.32;6.75;;;9.50;96.60;;;;;;4942030;28;20031;-74
2022/04/26 06:42:54;;;;;;;14.13;6.45;;;9.50;96.80;;;;;;4944091;28;20034;-76
2022/04/26 06:45:19;;;;;;;9.65;5.30;;;9.60;96.30;;;;;;4945594;28;20051;-75
2022/04/26 06:47:45;;;;;;;16.23;6.85;;;9.70;95.50;;;;;;4944505;28;20144;-75
2022/04/26 06:50:11;;;;;;;11.77;6.13;;;9.70;95.30;;;;;;4948312;28;20045;-75
2022/04/26 06:52:36;;;;;;;10.85;5.95;;;9.90;95.00;;;;;;4946435;28;20024;-75
2022/04/26 06:55:02;;;;;;;9.85;5.40;;;10.00;93.10;;;;;;4946100;28;20034;-75
2022/04/26 06:57:28;;;;;;;9.77;5.13;;;10.00;92.30;;;;;;4941696;28;20098;-74
2022/04/26 06:59:54;;;;;;;7.47;4.45;;;10.10;91.10;;;;;;4945451;28;20118;-74
2022/04/26 07:02:20;;;;;;;7.93;3.88;;;10.10;91.30;;;;;;4945081;28;20107;-74
2022/04/26 07:04:46;;;;;;;4.82;3.25;;;10.20;88.40;;;;;;4945810;28;20146;-74
2022/04/26 07:07:12;;;;;;;6.55;3.25;;;10.30;85.80;;;;;;4947627;28;20556;-72
2022/04/26 07:09:40;;;;;;;4.72;3.00;;;10.30;85.50;;;;;;4942367;28;20043;-73
2022/04/26 07:12:07;;;;;;;5.18;3.58;;;10.30;80.60;;;;;;4943829;28;20295;-75
2022/04/26 07:14:33;;;;;;;5.55;2.78;;;10.30;82.00;;;;;;4944338;28;20034;-75
2022/04/26 07:17:01;;;;;;;4.45;2.97;;;10.30;78.70;;;;;;4944112;28;20031;-73
2022/04/26 07:19:28;;;;;;;4.70;3.00;;;10.40;79.30;;;;;;4944499;28;20031;-72
2022/04/26 07:21:54;;;;;;;5.60;3.20;;;10.50;80.20;;;;;;4944523;28;20394;-73
2022/04/26 07:24:20;;;;;;;5.30;2.92;;;10.50;78.60;;;;;;4941343;28;20031;-73
2022/04/26 07:26:46;;;;;;;6.40;2.60;;;10.60;76.20;;;;;;4946310;28;20074;-72
2022/04/26 07:29:14;;;;;;;3.65;2.78;;;10.70;76.50;;;;;;4945615;28;20101;-72
2022/04/26 07:32:19;;;;;;;4.65;2.97;;;10.80;78.80;;;;;;4949819;28;20529;-70
2022/04/26 07:38:29;;;;;;;2.85;2.15;;;11.00;72.70;;;;;;4948569;28;20050;-72
2022/04/26 07:54:27;;;;;;;6.60;2.00;;;11.40;65.70;;;;;;4861516;29;20227;-72
2022/04/26 08:05:29;;;;;;;2.13;1.90;;;11.90;66.70;;;;;;5300150;23;20059;-75
2022/04/26 08:07:55;;;;;;;5.32;2.10;;;12.00;66.10;;;;;;4954627;28;20057;-75
2022/04/26 08:10:21;;;;;;;3.83;2.22;;;12.00;66.90;;;;;;4954237;28;21169;-75
2022/04/26 08:12:46;;;;;;;4.57;2.00;;;12.10;64.70;;;;;;4967933;28;20023;-74
2022/04/26 08:15:13;;;;;;;7.32;2.33;;;12.20;62.90;;;;;;4956601;28;20031;-75
2022/04/26 08:17:39;;;;;;;5.45;2.50;;;12.20;63.00;;;;;;4956073;28;20027;-75
2022/04/26 08:20:06;;;;;;;4.78;2.20;;;12.30;63.40;;;;;;4952033;28;20039;-75
2022/04/26 08:22:32;;;;;;;2.50;2.15;;;12.50;64.20;;;;;;4951288;28;20141;-75
2022/04/26 08:27:42;;;;;;;7.80;2.38;;;12.70;63.90;;;;;;4957742;28;20104;-80
2022/04/26 08:30:08;;;;;;;3.72;2.33;;;12.70;61.30;;;;;;4955698;28;20082;-76
2022/04/26 08:32:46;;;;;;;7.82;2.95;;;12.90;63.40;;;;;;4957107;28;20030;-78
2022/04/26 08:35:14;;;;;;;5.43;2.28;;;13.00;64.20;;;;;;4957724;28;20019;-80
2022/04/26 08:37:40;;;;;;;5.32;2.20;;;13.10;64.00;;;;;;4956173;28;20684;-81
2022/04/26 08:40:08;;;;;;;3.33;2.25;;;13.20;62.80;;;;;;4957338;28;20043;-77
2022/04/26 08:42:39;;;;;;;4.15;2.15;;;13.40;61.40;;;;;;4955852;28;20038;-78
2022/04/26 08:45:06;;;;;;;3.50;2.20;;;13.30;58.00;;;;;;4956222;28;20058;-76
2022/04/26 08:53:02;;;;;;;3.95;2.38;;;13.40;60.90;;;;;;4952564;28;20037;-77
2022/04/26 08:55:27;;;;;;;4.40;2.17;;;13.50;58.70;;;;;;4953284;28;20464;-79
2022/04/26 08:57:53;;;;;;;3.60;2.30;;;13.50;59.00;;;;;;4956055;28;20270;-78
2022/04/26 09:00:25;;;;;;;6.80;2.70;;;13.70;59.90;;;;;;4957060;28;20049;-80
2022/04/26 09:03:02;;;;;;;5.60;2.38;;;13.70;58.50;;;;;;4972745;28;20035;-78
2022/04/26 09:05:28;;;;;;;4.43;2.25;;;13.70;58.70;;;;;;4950896;28;20066;-77
2022/04/26 09:07:53;;;;;;;8.15;2.67;;;13.70;57.50;;;;;;4952093;28;20055;-77
2022/04/26 09:10:20;;;;;;;3.53;2.30;;;13.80;59.60;;;;;;4956059;28;20090;-80
2022/04/26 09:13:07;;;;;;;3.55;2.42;;;13.80;58.90;;;;;;4952881;28;20066;-79
2022/04/26 09:15:54;;;;;;;3.70;2.58;;;13.90;58.70;;;;;;4956954;28;20038;-77
2022/04/26 09:18:28;;;;;;;4.05;2.55;;;14.00;56.40;;;;;;4946142;28;20023;-77
2022/04/26 09:21:07;;;;;;;5.40;2.60;;;13.90;57.20;;;;;;4953355;28;20015;-79
2022/04/26 09:23:32;;;;;;;3.10;2.40;;;13.90;56.90;;;;;;4955145;28;20039;-77
2022/04/26 09:25:58;;;;;;;4.10;2.50;;;14.00;58.70;;;;;;4956725;28;20039;-76
2022/04/26 09:28:27;;;;;;;4.55;2.85;;;14.10;58.30;;;;;;4956906;28;20089;-78
2022/04/26 09:30:53;;;;;;;4.40;2.90;;;14.20;58.30;;;;;;4947778;28;20062;-78
2022/04/26 09:33:51;;;;;;;4.32;2.85;;;14.40;60.20;;;;;;4947742;28;20046;-78
2022/04/26 09:36:19;;;;;;;3.75;2.65;;;14.60;59.70;;;;;;4936880;28;20043;-78
2022/04/26 09:38:55;;;;;;;18.83;3.85;;;14.60;59.30;;;;;;4948249;28;20545;-78
2022/04/26 09:41:22;;;;;;;3.95;2.97;;;14.70;58.80;;;;;;4943746;29;20490;-79
2022/04/26 09:43:58;;;;;;;11.85;3.50;;;14.70;59.80;;;;;;4942188;28;20035;-78
2022/04/26 09:46:24;;;;;;;5.60;3.13;;;14.80;60.30;;;;;;4938161;29;20042;-78
2022/04/26 09:48:53;;;;;;;6.03;3.55;;;15.00;59.40;;;;;;4935948;29;20107;-78
2022/04/26 09:51:18;;;;;;;9.52;3.20;;;15.10;59.40;;;;;;4935905;28;20027;-78
2022/04/26 09:53:44;;;;;;;8.30;3.20;;;15.10;57.80;;;;;;4943189;28;20429;-77
2022/04/26 09:56:13;;;;;;;4.70;2.58;;;15.10;57.80;;;;;;4939291;29;20482;-78
2022/04/26 09:58:39;;;;;;;6.28;2.95;;;15.30;61.10;;;;;;4934994;29;20114;-78
2022/04/26 10:01:04;;;;;;;3.60;2.90;;;15.50;58.90;;;;;;4937016;29;20102;-78
2022/04/26 10:03:43;;;;;;;8.55;2.83;;;15.70;60.30;;;;;;4935941;29;20030;-78
2022/04/26 10:06:10;;;;;;;7.88;3.10;;;15.90;58.60;;;;;;4936335;29;20079;-79
2022/04/26 10:08:36;;;;;;;6.15;3.30;;;15.80;56.70;;;;;;4943267;29;20030;-78
2022/04/26 10:11:03;;;;;;;6.10;3.22;;;15.70;56.90;;;;;;4938552;29;20020;-78
2022/04/26 10:13:31;;;;;;;4.35;3.33;;;15.80;57.30;;;;;;4931868;29;20023;-78
2022/04/26 10:16:08;;;;;;;3.38;2.53;;;15.90;59.30;;;;;;4941110;29;20078;-77
2022/04/26 10:18:43;;;;;;;3.88;2.85;;;15.90;55.00;;;;;;4942800;29;20082;-78
2022/04/26 10:21:38;;;;;;;4.55;2.90;;;16.00;55.80;;;;;;4933272;29;20028;-78
2022/04/26 10:24:14;;;;;;;3.28;2.60;;;16.40;56.60;;;;;;4940023;29;20401;-77
2022/04/26 10:26:40;;;;;;;5.00;2.80;;;16.60;56.70;;;;;;4938310;29;20118;-77
2022/04/26 10:29:09;;;;;;;3.45;2.72;;;16.80;58.00;;;;;;4940207;28;20628;-77
2022/04/26 10:31:44;;;;;;;3.17;2.40;;;17.10;57.30;;;;;;4941552;29;20028;-77
2022/04/26 10:34:29;;;;;;;3.80;3.05;;;17.30;54.70;;;;;;4939878;28;20032;-77
2022/04/26 10:37:05;;;;;;;8.35;2.65;;;16.80;53.20;;;;;;4950028;28;20111;-77
2022/04/26 10:39:32;;;;;;;3.13;2.50;;;17.10;54.40;;;;;;4937910;29;20027;-77
2022/04/26 10:41:59;;;;;;;4.55;2.83;;;17.30;52.90;;;;;;4941050;28;20034;-77
2022/04/26 10:44:27;;;;;;;2.90;2.38;;;17.20;50.80;;;;;;4941804;28;20615;-77
2022/04/26 10:46:53;;;;;;;3.42;2.83;;;16.90;51.30;;;;;;4937494;28;20027;-77
2022/04/26 10:49:24;;;;;;;4.00;2.50;;;17.10;53.10;;;;;;4931914;29;20027;-77
2022/04/26 10:51:55;;;;;;;3.28;2.15;;;17.50;54.00;;;;;;4933877;29;20051;-77
2022/04/26 10:54:48;;;;;;;2.47;2.25;;;17.70;53.50;;;;;;4937797;28;20031;-77
2022/04/26 10:57:17;;;;;;;5.40;2.38;;;18.10;50.50;;;;;;4935736;29;20031;-78
2022/04/26 10:59:44;;;;;;;3.63;2.40;;;18.30;49.70;;;;;;4941946;29;20031;-76
2022/04/26 11:02:18;;;;;;;3.20;2.42;;;18.00;48.20;;;;;;4935170;28;20236;-77
2022/04/26 11:04:44;;;;;;;4.97;2.20;;;18.20;49.90;;;;;;4939189;29;20493;-77
2022/04/26 11:07:14;;;;;;;2.90;2.30;;;18.20;49.30;;;;;;4938703;28;20038;-76
2022/04/26 11:09:50;;;;;;;6.77;2.33;;;18.60;49.30;;;;;;4940387;28;20044;-77
2022/04/26 11:12:19;;;;;;;9.35;2.47;;;18.90;49.80;;;;;;4945455;28;20019;-76
2022/04/26 11:14:46;;;;;;;3.08;2.58;;;18.70;47.70;;;;;;4940724;29;20425;-76
2022/04/26 11:17:14;;;;;;;8.05;2.40;;;19.10;47.20;;;;;;4943785;28;20034;-75
2022/04/26 11:19:48;;;;;;;2.70;2.50;;;19.40;47.40;;;;;;4945520;28;20039;-76
2022/04/26 11:22:13;;;;;;;4.85;2.20;;;19.80;48.10;;;;;;4943085;29;20035;-77
2022/04/26 11:30:09;;;;;;;6.00;2.83;;;20.20;45.60;;;;;;4935345;29;20050;-76
2022/04/26 11:32:42;;;;;;;6.88;2.35;;;20.30;46.60;;;;;;4940897;28;20039;-78
2022/04/26 11:35:08;;;;;;;2.40;2.20;;;20.80;47.00;;;;;;4939543;29;20028;-76
2022/04/26 11:37:48;;;;;;;4.25;2.35;;;20.80;44.30;;;;;;4947835;28;20486;-80
2022/04/26 11:40:26;;;;;;;6.60;2.25;;;20.50;45.80;;;;;;4940563;29;20501;-80
2022/04/26 11:42:52;;;;;;;4.35;2.40;;;20.60;45.10;;;;;;4943010;28;20047;-78
2022/04/26 11:45:18;;;;;;;4.32;2.40;;;20.70;43.40;;;;;;4941474;29;20082;-79
2022/04/26 11:47:49;;;;;;;3.15;2.60;;;20.80;46.00;;;;;;4936940;28;20078;-78
2022/04/26 11:50:19;;;;;;;;;;;21.10;44.10;;;;;;4941961;29;20031;-77
2022/04/26 11:52:46;;;;;;;3.15;1.95;;;21.60;42.10;;;;;;4945237;28;20439;-77
2022/04/26 11:55:32;;;;;;;2.75;2.47;;;22.00;43.10;;;;;;4945291;28;20028;-79
2022/04/26 11:58:19;;;;;;;2.72;2.00;;;22.10;43.00;;;;;;4937565;29;20035;-78
2022/04/26 12:01:15;;;;;;;3.58;2.10;;;22.90;41.80;;;;;;4941023;28;20050;-79
2022/04/26 12:03:48;;;;;;;3.47;2.50;;;22.90;40.90;;;;;;4932134;28;20106;-78
2022/04/26 12:06:19;;;;;;;4.32;1.90;;;23.10;40.50;;;;;;4941333;29;20130;-76
2022/04/26 12:08:50;;;;;;;2.85;2.20;;;23.30;36.90;;;;;;4936730;28;20055;-77
2022/04/26 12:11:27;;;;;;;3.53;2.15;;;22.70;38.10;;;;;;4937464;29;20553;-76
2022/04/26 12:14:16;;;;;;;3.22;2.17;;;22.10;39.70;;;;;;4942775;29;20036;-77
2022/04/26 12:16:44;;;;;;;4.78;2.28;;;21.40;39.00;;;;;;4943730;28;20762;-77
2022/04/26 12:19:11;;;;;;;4.18;2.08;;;21.00;40.70;;;;;;4942336;28;20900;-77
2022/04/26 12:21:47;;;;;;;2.47;1.98;;;20.70;40.20;;;;;;4943874;29;20035;-77
2022/04/26 12:24:15;;;;;;;2.97;1.90;;;21.10;40.80;;;;;;4940784;28;20079;-78
2022/04/26 12:26:52;;;;;;;2.55;2.00;;;22.00;39.00;;;;;;4942332;28;20508;-74
2022/04/26 12:29:18;;;;;;;4.47;1.80;;;22.80;35.50;;;;;;4943829;28;20767;-76
2022/04/26 12:31:46;;;;;;;4.65;1.70;;;22.70;34.20;;;;;;4942853;28;20038;-76
2022/04/26 12:34:24;;;;;;;1.88;1.73;;;23.20;35.30;;;;;;4940788;28;20028;-76
2022/04/26 12:36:58;;;;;;;1.80;1.60;;;24.00;33.60;;;;;;4945891;28;20090;-76
2022/04/26 12:39:45;;;;;;;3.40;1.70;;;25.10;34.30;;;;;;4945939;28;20147;-75
2022/04/26 12:42:34;;;;;;;2.00;1.80;;;26.40;33.00;;;;;;4942858;28;20039;-76
2022/04/26 12:45:03;;;;;;;2.33;1.75;;;27.00;32.00;;;;;;4944072;28;20050;-76
2022/04/26 12:50:29;;;;;;;2.10;1.90;;;27.90;29.40;;;;;;4931280;29;20070;-75
2022/04/26 12:52:57;;;;;;;2.17;1.90;;;29.20;31.60;;;;;;4932738;28;20070;-76
2022/04/26 12:55:35;;;;;;;2.92;2.03;;;30.10;29.10;;;;;;4937719;29;20537;-76
2022/04/26 12:58:04;;;;;;;4.03;1.83;;;30.80;28.70;;;;;;4936705;28;20376;-75
2022/04/26 13:00:30;;;;;;;2.13;1.90;;;31.60;28.50;;;;;;4938807;29;20031;-75
2022/04/26 13:02:58;;;;;;;2.28;2.08;;;31.90;27.90;;;;;;4941260;28;20402;-75
2022/04/26 13:05:37;;;;;;;3.10;1.77;;;32.40;27.20;;;;;;4932169;28;21235;-74
2022/04/26 13:08:03;;;;;;;3.70;1.90;;;32.30;26.50;;;;;;4932544;29;20035;-76
2022/04/26 13:10:28;;;;;;;4.47;1.80;;;31.90;26.40;;;;;;4935454;29;20506;-76
2022/04/26 13:12:53;;;;;;;2.05;1.60;;;31.90;27.00;;;;;;4934239;29;20474;-76
2022/04/26 13:15:23;;;;;;;2.28;1.70;;;31.30;26.30;;;;;;4935293;29;20020;-76
2022/04/26 13:17:49;;;;;;;1.63;1.50;;;31.30;26.50;;;;;;4943222;29;20035;-75
2022/04/26 13:20:14;;;;;;;2.53;1.70;;;32.10;26.30;;;;;;4937335;29;20030;-76
2022/04/26 13:22:40;;;;;;;3.13;1.60;;;32.40;26.90;;;;;;4939633;29;20078;-76
2022/04/26 13:25:06;;;;;;;1.80;1.40;;;32.90;26.60;;;;;;4935017;29;20465;-76
2022/04/26 13:27:34;;;;;;;3.20;1.85;;;33.40;26.60;;;;;;4936808;28;20039;-76
2022/04/26 13:30:00;;;;;;;2.63;1.83;;;33.70;24.50;;;;;;4931768;28;20511;-76
2022/04/26 13:32:29;;;;;;;2.47;1.70;;;34.10;24.10;;;;;;4935269;28;20196;-76
2022/04/26 13:34:55;;;;;;;3.22;1.27;;;35.70;23.40;;;;;;4932777;28;20225;-76
2022/04/26 13:37:21;;;;;;;4.07;1.50;;;35.90;23.30;;;;;;4938933;28;20039;-76
2022/04/26 13:39:48;;;;;;;1.63;1.50;;;35.80;23.40;;;;;;4939391;29;20103;-77
2022/04/26 13:42:14;;;;;;;3.03;1.30;;;36.60;22.50;;;;;;4942788;28;20043;-77
2022/04/26 13:44:40;;;;;;;3.10;1.80;;;36.80;22.60;;;;;;4937177;29;20659;-76
2022/04/26 13:47:06;;;;;;;4.20;1.70;;;36.90;21.90;;;;;;4933528;28;20035;-76
2022/04/26 13:49:34;;;;;;;2.65;1.75;;;37.80;21.90;;;;;;4938544;28;20038;-76
2022/04/26 13:52:00;;;;;;;2.03;1.75;;;37.50;22.40;;;;;;4945755;28;20063;-76
2022/04/26 13:54:27;;;;;;;3.80;1.73;;;37.00;22.50;;;;;;4944924;28;20133;-76
2022/04/26 13:56:54;;;;;;;2.20;1.60;;;37.00;22.90;;;;;;4948484;28;20039;-76
2022/04/26 13:59:20;;;;;;;4.32;1.67;;;37.90;22.10;;;;;;4942776;28;20072;-76
2022/04/26 14:01:45;;;;;;;7.15;1.73;;;36.40;21.40;;;;;;4951073;28;20960;-76
2022/04/26 14:04:11;;;;;;;2.40;1.48;;;36.00;22.50;;;;;;4954004;28;20047;-75
2022/04/26 14:06:36;;;;;;;1.40;1.30;;;37.30;21.70;;;;;;4953392;28;20441;-76
2022/04/26 14:09:02;;;;;;;3.15;1.50;;;38.40;21.30;;;;;;4952036;28;20027;-76
2022/04/26 14:11:27;;;;;;;1.95;1.63;;;36.90;20.90;;;;;;4954222;28;20051;-77
2022/04/26 14:22:05;;;;;;;3.25;1.58;;;27.50;28.00;;;;;;4951861;28;20953;-77
2022/04/26 14:24:31;;;;;;;2.63;1.70;;;25.40;30.20;;;;;;4947778;28;20035;-77
2022/04/26 14:26:57;;;;;;;3.90;1.60;;;24.50;30.80;;;;;;4949572;28;20168;-77
2022/04/26 14:29:23;;;;;;;1.65;1.50;;;25.80;31.70;;;;;;4950461;28;20028;-77
2022/04/26 14:31:50;;;;;;;2.45;1.52;;;26.40;30.00;;;;;;4948113;28;20512;-77
2022/04/26 14:34:15;;;;;;;3.58;1.70;;;27.00;29.80;;;;;;4950537;28;20035;-76
2022/04/26 14:36:41;;;;;;;5.15;1.75;;;29.30;28.80;;;;;;4945713;28;20493;-76
2022/04/26 14:39:07;;;;;;;4.13;1.77;;;30.60;28.20;;;;;;4947281;28;20070;-76
2022/04/26 14:41:32;;;;;;;4.05;2.67;;;28.00;27.90;;;;;;4942347;28;20027;-76
2022/04/26 14:43:57;;;;;;;3.22;1.90;;;26.30;29.50;;;;;;4940122;28;20023;-77
2022/04/26 14:46:23;;;;;;;4.05;1.80;;;24.70;31.70;;;;;;4942970;28;20040;-76
2022/04/26 14:48:48;;;;;;;4.03;1.92;;;23.40;33.30;;;;;;4951808;28;20088;-76
2022/04/26 14:51:14;;;;;;;7.03;1.85;;;22.30;33.90;;;;;;4946760;28;20032;-76
2022/04/26 14:53:39;;;;;;;2.10;1.90;;;21.60;34.50;;;;;;4952773;28;20027;-76
2022/04/26 14:56:07;;;;;;;1.98;1.77;;;21.00;37.80;;;;;;4952159;28;20027;-76
2022/04/26 14:58:34;;;;;;;4.70;1.90;;;20.80;37.60;;;;;;4946971;28;20031;-76
2022/04/26 15:01:00;;;;;;;4.43;1.85;;;20.40;38.30;;;;;;4947734;28;20039;-76
2022/04/26 15:03:26;;;;;;;3.55;1.77;;;20.20;38.20;;;;;;4947843;28;20074;-76
2022/04/26 15:05:51;;;;;;;2.95;1.90;;;19.90;39.50;;;;;;4944630;28;20051;-78
2022/04/26 15:11:01;;;;;;;1.85;1.73;;;19.80;38.80;;;;;;4947088;29;20606;-76
2022/04/26 15:18:55;;;;;;;2.78;1.90;;;19.70;42.20;;;;;;4943888;29;20043;-77
2022/04/26 15:21:24;;;;;;;6.32;2.53;;;19.90;40.90;;;;;;4940081;28;20038;-78
2022/04/26 15:23:50;;;;;;;3.17;2.53;;;19.90;40.70;;;;;;4937068;28;20138;-77
2022/04/26 15:26:16;;;;;;;4.07;2.70;;;19.90;41.30;;;;;;4941005;28;20031;-77
2022/04/26 15:28:42;;;;;;;6.63;2.70;;;19.90;41.30;;;;;;4942156;29;20118;-76
2022/04/26 15:31:07;;;;;;;2.50;2.00;;;19.80;40.40;;;;;;4943536;29;20106;-76
2022/04/26 15:33:33;;;;;;;2.47;1.70;;;19.60;40.50;;;;;;4935842;29;20043;-76
2022/04/26 15:35:59;;;;;;;3.92;1.90;;;19.50;41.00;;;;;;4941207;28;20054;-76
2022/04/26 15:38:27;;;;;;;2.75;2.00;;;19.40;41.40;;;;;;4941823;29;20031;-76
2022/04/26 15:40:54;;;;;;;1.92;1.75;;;19.40;40.40;;;;;;4940785;29;20043;-74
2022/04/26 15:43:20;;;;;;;3.10;1.70;;;19.50;41.00;;;;;;4939371;28;20032;-74
2022/04/26 15:45:45;;;;;;;6.00;2.20;;;19.50;39.70;;;;;;4938990;29;20031;-74
2022/04/26 15:48:12;;;;;;;4.53;2.17;;;19.50;42.30;;;;;;4941236;28;20027;-75
2022/04/26 15:50:41;;;;;;;4.13;1.90;;;19.50;41.80;;;;;;4941451;28;20478;-75
2022/04/26 15:53:07;;;;;;;4.85;2.50;;;19.40;41.50;;;;;;4941724;29;20023;-75
2022/04/26 15:55:33;;;;;;;3.38;1.65;;;19.40;43.20;;;;;;4939630;29;20051;-75
2022/04/26 15:57:58;;;;;;;3.25;1.85;;;19.50;42.70;;;;;;4939519;28;20481;-75
2022/04/26 16:00:26;;;;;;;7.20;1.90;;;19.40;40.50;;;;;;4936794;29;20023;-75
2022/04/26 16:02:53;;;;;;;3.85;2.20;;;19.40;40.90;;;;;;4945825;29;20015;-76
2022/04/26 16:05:19;;;;;;;5.93;1.90;;;19.30;41.50;;;;;;4934910;28;20043;-76
2022/04/26 16:07:44;;;;;;;7.35;1.80;;;19.30;41.70;;;;;;4940960;29;20039;-74
2022/04/26 16:21:08;;;;;;;2.25;2.05;;;19.40;43.20;;;;;;4940778;28;20169;-75
2022/04/26 16:23:33;;;;;;;2.28;1.90;;;19.20;42.20;;;;;;4935966;28;20036;-75
2022/04/26 16:26:02;;;;;;;2.83;2.17;;;19.20;40.90;;;;;;4935362;28;20027;-75
2022/04/26 16:28:32;;;;;;;2.17;1.88;;;19.20;43.00;;;;;;4938291;29;20035;-76
2022/04/26 16:30:58;;;;;;;3.42;2.08;;;19.10;43.00;;;;;;4937172;28;20082;-76
2022/04/26 16:33:24;;;;;;;2.75;2.30;;;18.90;43.10;;;;;;4940730;29;20031;-76
2022/04/26 16:35:50;;;;;;;3.42;2.10;;;18.70;44.80;;;;;;4941968;28;20059;-75
2022/04/26 16:38:17;;;;;;;4.38;2.17;;;18.60;44.90;;;;;;4940366;28;20031;-75
2022/04/26 16:40:44;;;;;;;5.45;2.20;;;18.50;44.90;;;;;;4937769;28;20042;-75
2022/04/26 16:43:10;;;;;;;6.55;1.90;;;18.30;47.20;;;;;;4938504;28;20035;-75
2022/04/26 16:45:36;;;;;;;2.03;1.65;;;18.30;47.60;;;;;;4937344;29;20422;-75
2022/04/26 16:48:01;;;;;;;3.15;2.00;;;18.10;46.80;;;;;;4944234;29;20032;-75
2022/04/26 16:50:27;;;;;;;5.47;1.98;;;18.20;48.20;;;;;;4948764;28;20379;-76
2022/04/26 16:52:54;;;;;;;6.28;1.92;;;18.90;47.40;;;;;;4951384;29;20023;-76
2022/04/26 16:55:21;;;;;;;6.63;2.05;;;20.10;47.60;;;;;;4947080;28;20023;-76
2022/04/26 16:57:46;;;;;;;2.20;1.70;;;21.80;43.80;;;;;;4957844;28;20516;-76
2022/04/26 17:00:14;;;;;;;4.05;1.98;;;22.60;40.50;;;;;;4956529;28;20023;-76
2022/04/26 17:02:40;;;;;;;3.95;1.98;;;22.30;39.40;;;;;;4951404;28;20497;-75
2022/04/26 17:05:05;;;;;;;4.15;1.98;;;21.50;41.10;;;;;;4956728;28;20058;-74
2022/04/26 17:07:31;;;;;;;2.65;1.83;;;21.10;41.40;;;;;;4955038;28;20046;-75
2022/04/26 17:09:56;;;;;;;4.40;1.83;;;20.80;42.70;;;;;;4957140;28;20572;-75
2022/04/26 17:12:22;;;;;;;3.58;1.88;;;20.40;43.10;;;;;;4956468;28;20019;-75
2022/04/26 17:14:48;;;;;;;5.43;2.00;;;20.30;42.60;;;;;;4950757;28;20070;-75
2022/04/26 17:17:14;;;;;;;2.67;2.17;;;20.40;42.60;;;;;;4950408;28;20050;-75
2022/04/26 17:19:40;;;;;;;3.53;2.00;;;20.90;42.50;;;;;;4956670;28;20101;-76
2022/04/26 17:22:05;;;;;;;3.65;1.70;;;21.30;42.40;;;;;;4950784;28;20121;-76
2022/04/26 17:27:24;;;;;;;3.28;2.00;;;20.20;43.90;;;;;;4953985;28;20398;-76
2022/04/26 17:29:50;;;;;;;5.57;2.85;;;19.40;46.10;;;;;;4953814;28;20019;-75
2022/04/26 17:32:16;;;;;;;4.07;2.33;;;18.60;45.90;;;;;;4952137;28;20062;-76
2022/04/26 17:34:42;;;;;;;4.55;2.10;;;18.10;45.80;;;;;;4955203;28;20024;-76
2022/04/26 17:37:09;;;;;;;3.90;2.00;;;17.70;47.10;;;;;;4955042;28;20031;-77
2022/04/26 17:39:34;;;;;;;4.10;2.10;;;17.40;48.10;;;;;;4956279;28;20027;-76
2022/04/26 17:42:00;;;;;;;7.75;2.10;;;17.00;48.10;;;;;;4951130;28;20441;-76
2022/04/26 17:44:26;;;;;;;1.70;1.60;;;16.70;47.80;;;;;;4953657;28;20478;-77